Time;durP1;ratioP1;P1;durP2;ratioP2;P2;SDS_P1;SDS_P2;PMS_P1;PMS_P2;Temp;Humidity;BMP_temperature;BMP_pressure;BME280_temperature;BME280_humidity;BME280_pressure;Samples;Min_cycle;Max_cycle;Signal;HPM_P1;HPM_P2
2022/09/21 00:02:16;;;;;;;15.77;8.23;;;;;;;9.08;68.61;100370.80;125183;1099;109006;-76
2022/09/21 00:04:49;;;;;;;15.83;8.03;;;;;;;9.04;68.53;100374.16;124169;1099;104323;-76
2022/09/21 00:07:20;;;;;;;16.05;8.08;;;;;;;9.01;69.07;100374.03;124190;1099;104239;-76
2022/09/21 00:09:52;;;;;;;16.25;7.60;;;;;;;8.99;68.93;100373.97;124209;1099;104173;-76
2022/09/21 00:12:23;;;;;;;14.73;7.30;;;;;;;8.97;69.25;100361.64;124169;1099;104350;-75
2022/09/21 00:14:55;;;;;;;15.87;7.77;;;;;;;8.94;68.66;100367.66;124232;1099;103673;-75
2022/09/21 00:17:27;;;;;;;18.37;8.37;;;;;;;8.94;69.17;100372.91;124216;1099;102678;-76
2022/09/21 00:19:59;;;;;;;13.40;7.27;;;;;;;8.93;68.90;100373.72;124234;1099;102303;-76
2022/09/21 00:22:31;;;;;;;15.87;8.37;;;;;;;8.96;69.42;100376.46;124301;1099;104176;-76
2022/09/21 00:25:03;;;;;;;16.10;8.10;;;;;;;8.96;68.87;100365.99;124200;1099;104714;-76
2022/09/21 00:27:34;;;;;;;15.90;7.40;;;;;;;8.97;69.21;100372.11;124231;1099;104162;-75
2022/09/21 00:30:08;;;;;;;14.37;7.63;;;;;;;9.00;69.01;100369.61;124278;1099;102330;-76
2022/09/21 00:32:39;;;;;;;13.63;7.27;;;;;;;9.00;69.21;100372.23;124208;1099;102600;-76
2022/09/21 00:35:11;;;;;;;13.83;7.50;;;;;;;8.97;69.50;100377.34;124242;1099;104248;-76
2022/09/21 00:37:42;;;;;;;14.27;7.43;;;;;;;8.92;69.34;100374.54;124184;1099;103835;-75
2022/09/21 00:40:13;;;;;;;15.47;6.93;;;;;;;8.88;69.14;100371.73;124137;1099;102989;-75
2022/09/21 00:42:44;;;;;;;14.60;7.30;;;;;;;8.85;69.63;100376.84;124571;1099;104245;-76
2022/09/21 00:45:21;;;;;;;16.10;7.40;;;;;;;8.82;69.92;100377.63;124733;1099;102794;-76
2022/09/21 00:47:53;;;;;;;15.00;7.23;;;;;;;8.78;69.88;100375.71;124717;1099;104165;-76
2022/09/21 00:50:26;;;;;;;15.97;7.10;;;;;;;8.75;69.55;100375.59;124695;1099;104290;-76
2022/09/21 00:52:58;;;;;;;14.07;6.80;;;;;;;8.72;70.05;100378.95;124260;1099;104369;-76
2022/09/21 00:55:36;;;;;;;16.00;7.27;;;;;;;8.72;70.31;100373.72;124135;1099;102463;-76
2022/09/21 00:58:11;;;;;;;14.43;6.50;;;;;;;8.71;69.90;100374.58;124190;1099;104238;-75
2022/09/21 01:00:43;;;;;;;13.20;6.57;;;;;;;8.68;70.25;100374.45;124216;1099;104178;-76
2022/09/21 01:03:15;;;;;;;11.80;6.40;;;;;;;8.66;70.28;100372.59;124596;1099;102944;-75
2022/09/21 01:05:46;;;;;;;14.50;6.57;;;;;;;8.60;69.79;100365.38;124653;1099;104907;-76
2022/09/21 01:08:19;;;;;;;10.00;5.70;;;;;;;8.66;70.78;100372.59;124662;1099;104204;-76
2022/09/21 01:11:14;;;;;;;12.93;6.70;;;;;;;8.63;71.04;100363.80;124728;1098;104204;-75
2022/09/21 01:13:59;;;;;;;12.10;6.20;;;;;;;8.60;70.74;100363.67;124187;1099;104159;-75
2022/09/21 01:16:35;;;;;;;11.93;6.10;;;;;;;8.59;70.83;100361.88;124202;1099;104268;-75
2022/09/21 01:19:21;;;;;;;13.23;6.17;;;;;;;8.62;71.03;100356.77;124175;1099;104172;-75
2022/09/21 01:22:04;;;;;;;11.40;6.07;;;;;;;8.63;71.40;100355.03;124148;1099;104233;-76
2022/09/21 01:24:51;;;;;;;13.00;6.37;;;;;;;8.58;71.28;100357.46;124218;1099;102077;-75
2022/09/21 01:27:56;;;;;;;13.03;6.13;;;;;;;8.53;71.02;100353.77;124224;1099;104163;-76
2022/09/21 01:30:29;;;;;;;12.43;6.37;;;;;;;8.50;71.08;100355.37;124171;1099;104236;-75
2022/09/21 01:33:07;;;;;;;13.43;6.63;;;;;;;8.49;70.84;100356.20;124207;1099;104223;-76
2022/09/21 01:35:46;;;;;;;12.97;6.00;;;;;;;8.49;71.64;100361.42;124188;1099;104358;-75
2022/09/21 01:38:23;;;;;;;12.60;6.20;;;;;;;8.49;71.26;100362.30;124128;1099;102781;-75
2022/09/21 01:40:59;;;;;;;13.43;6.57;;;;;;;8.51;71.60;100359.75;124211;1099;104259;-75
2022/09/21 01:43:35;;;;;;;12.10;6.13;;;;;;;8.51;71.22;100360.67;124227;1099;104341;-76
2022/09/21 01:46:12;;;;;;;13.47;6.53;;;;;;;8.53;71.87;100368.58;124130;1099;104430;-76
2022/09/21 01:48:47;;;;;;;13.43;6.47;;;;;;;8.53;71.97;100368.58;124156;1099;104309;-76
2022/09/21 01:51:20;;;;;;;13.43;6.13;;;;;;;8.53;71.27;100366.84;124157;1099;104173;-75
2022/09/21 01:53:56;;;;;;;15.13;6.30;;;;;;;8.52;71.35;100362.44;124186;1099;104230;-76
2022/09/21 01:56:33;;;;;;;13.17;6.33;;;;;;;8.54;71.33;100365.11;124187;1099;104185;-76
2022/09/21 01:59:11;;;;;;;14.30;6.57;;;;;;;8.57;71.82;100371.39;124189;1099;104268;-76
2022/09/21 02:01:47;;;;;;;11.93;5.87;;;;;;;8.60;71.56;100370.59;124192;1099;104320;-76
2022/09/21 02:04:19;;;;;;;12.30;5.83;;;;;;;8.58;72.33;100367.04;124243;1099;104304;-76
2022/09/21 02:06:53;;;;;;;10.97;5.60;;;;;;;8.56;72.06;100368.70;124211;1099;104165;-75
2022/09/21 02:09:25;;;;;;;11.83;5.90;;;;;;;8.55;71.81;100370.41;124174;1099;104214;-76
2022/09/21 02:12:00;;;;;;;12.40;5.73;;;;;;;8.57;71.95;100370.47;124225;1099;102871;-76
2022/09/21 02:14:32;;;;;;;12.20;6.20;;;;;;;8.58;72.35;100375.77;124284;1099;102640;-76
2022/09/21 02:17:26;;;;;;;13.20;5.63;;;;;;;8.61;72.03;100381.12;124188;1102;102871;-76
2022/09/21 02:20:07;;;;;;;12.30;5.80;;;;;;;8.63;72.25;100381.19;124228;1099;102199;-76
2022/09/21 02:22:48;;;;;;;10.30;5.33;;;;;;;8.63;72.88;100379.49;124164;1099;104300;-76
2022/09/21 02:25:29;;;;;;;13.20;6.23;;;;;;;8.64;73.00;100378.64;124268;1099;108180;-76
2022/09/21 02:28:06;;;;;;;14.43;5.87;;;;;;;8.65;72.90;100384.78;124207;1099;104329;-76
2022/09/21 02:30:41;;;;;;;13.40;6.17;;;;;;;8.64;72.65;100381.25;124191;1099;102217;-76
2022/09/21 02:33:19;;;;;;;13.33;5.87;;;;;;;8.67;73.11;100395.31;124184;1099;104281;-76
2022/09/21 02:35:57;;;;;;;13.33;6.27;;;;;;;8.67;72.67;100390.97;124177;1099;117756;-76
2022/09/21 02:38:39;;;;;;;12.90;6.13;;;;;;;8.71;73.21;100390.27;124133;1099;104235;-76
2022/09/21 02:41:16;;;;;;;9.77;5.50;;;;;;;8.73;72.78;100388.61;124186;1099;104182;-76
2022/09/21 02:43:51;;;;;;;11.17;5.83;;;;;;;8.76;73.49;100387.84;124164;1099;104169;-76
2022/09/21 02:46:29;;;;;;;14.40;6.33;;;;;;;8.78;73.15;100386.17;124172;1099;104188;-76
2022/09/21 02:49:08;;;;;;;10.77;5.77;;;;;;;8.80;73.39;100385.42;124217;1099;102838;-76
2022/09/21 02:51:46;;;;;;;14.47;6.13;;;;;;;8.81;73.66;100381.95;124201;1099;104175;-75
2022/09/21 02:54:22;;;;;;;12.30;5.83;;;;;;;8.83;73.64;100384.63;124207;1099;104208;-76
2022/09/21 02:56:55;;;;;;;12.13;5.97;;;;;;;8.84;73.42;100389.05;124192;1102;104194;-76
2022/09/21 02:59:27;;;;;;;12.03;5.90;;;;;;;8.83;73.66;100373.28;124192;1099;103576;-75
2022/09/21 03:01:58;;;;;;;14.13;5.67;;;;;;;8.83;73.44;100379.40;124219;1099;104188;-75
2022/09/21 03:04:29;;;;;;;11.57;5.70;;;;;;;8.85;73.85;100375.14;124645;1099;103061;-76
2022/09/21 03:07:01;;;;;;;14.67;5.90;;;;;;;8.86;73.99;100387.38;124792;1099;102884;-76
2022/09/21 03:09:32;;;;;;;12.33;5.60;;;;;;;8.86;73.99;100376.91;124742;1099;104194;-75
2022/09/21 03:12:03;;;;;;;11.90;5.77;;;;;;;8.85;73.99;100375.14;124772;1099;104203;-75
2022/09/21 03:14:35;;;;;;;13.50;5.83;;;;;;;8.85;73.72;100372.53;124739;1099;102266;-76
2022/09/21 03:17:06;;;;;;;14.23;6.43;;;;;;;8.84;73.75;100380.31;124702;1099;103569;-76
2022/09/21 03:19:37;;;;;;;13.97;6.10;;;;;;;8.84;73.92;100373.34;124706;1099;104067;-75
2022/09/21 03:22:08;;;;;;;13.97;5.90;;;;;;;8.80;74.28;100374.04;124720;1099;102761;-76
2022/09/21 03:24:45;;;;;;;13.70;5.77;;;;;;;8.79;74.28;100383.63;124722;1099;105499;-76
2022/09/21 03:27:18;;;;;;;12.40;5.80;;;;;;;8.78;74.28;100384.45;124712;1098;104229;-76
2022/09/21 03:29:49;;;;;;;14.07;6.00;;;;;;;8.76;74.36;100388.73;125815;1098;104188;-75
2022/09/21 03:32:20;;;;;;;12.70;5.93;;;;;;;8.76;74.12;100395.70;124744;1098;104246;-75
2022/09/21 03:34:51;;;;;;;14.17;6.20;;;;;;;8.74;73.87;100394.72;124711;1099;104210;-76
2022/09/21 03:37:22;;;;;;;14.33;6.27;;;;;;;8.77;74.66;100394.84;124732;1099;104335;-76
2022/09/21 03:39:54;;;;;;;13.33;6.40;;;;;;;8.78;74.19;100388.80;124704;1099;104175;-76
2022/09/21 03:42:25;;;;;;;13.67;5.73;;;;;;;8.78;74.48;100389.67;124704;1099;104255;-76
2022/09/21 03:44:56;;;;;;;16.17;5.90;;;;;;;8.79;74.52;100393.20;124716;1099;104169;-76
2022/09/21 03:47:28;;;;;;;12.87;5.93;;;;;;;8.81;74.84;100391.53;124707;1099;104328;-76
2022/09/21 03:49:59;;;;;;;15.77;6.03;;;;;;;8.83;74.56;100391.59;124739;1099;104197;-77
2022/09/21 03:52:30;;;;;;;23.87;5.83;;;;;;;8.84;74.63;100389.05;124731;1099;102977;-76
2022/09/21 03:55:02;;;;;;;12.73;6.20;;;;;;;8.87;74.63;100396.14;124680;1098;104067;-76
2022/09/21 03:57:33;;;;;;;14.53;6.40;;;;;;;8.86;75.05;100397.84;124701;1099;102743;-76
2022/09/21 04:00:08;;;;;;;15.73;6.13;;;;;;;8.87;74.64;100398.75;124692;1099;104175;-75
2022/09/21 04:02:40;;;;;;;11.60;5.37;;;;;;;8.86;75.18;100405.69;124769;1099;102794;-75
2022/09/21 04:05:14;;;;;;;12.67;6.33;;;;;;;8.86;74.88;100415.28;124650;1099;104334;-75
2022/09/21 04:07:47;;;;;;;15.50;5.97;;;;;;;8.87;75.01;100414.45;124740;1098;108146;-75
2022/09/21 04:10:20;;;;;;;14.93;5.87;;;;;;;8.86;74.86;100424.01;124763;1098;104175;-76
2022/09/21 04:12:51;;;;;;;14.87;6.27;;;;;;;8.87;74.95;100411.84;124672;1099;102343;-76
2022/09/21 04:15:22;;;;;;;15.53;6.00;;;;;;;8.89;75.36;100418.91;124697;1098;104328;-75
2022/09/21 04:17:54;;;;;;;17.67;6.93;;;;;;;8.90;75.42;100423.31;124710;1099;104242;-76
2022/09/21 04:20:26;;;;;;;27.03;12.13;;;;;;;8.93;75.25;100427.80;124694;1099;104198;-75
2022/09/21 04:22:57;;;;;;;22.17;8.43;;;;;;;8.94;75.16;100424.33;124687;1099;104227;-76
2022/09/21 04:25:28;;;;;;;19.33;6.63;;;;;;;8.97;75.57;100424.45;124709;1099;104224;-75
2022/09/21 04:28:02;;;;;;;14.20;6.50;;;;;;;9.01;75.09;100423.75;124764;1099;104203;-75
2022/09/21 04:30:34;;;;;;;15.00;6.60;;;;;;;9.06;75.52;100423.95;124693;1099;102977;-75
2022/09/21 04:33:05;;;;;;;11.67;5.63;;;;;;;9.08;75.31;100422.27;124671;1099;104297;-75
2022/09/21 04:35:37;;;;;;;12.57;5.70;;;;;;;9.09;75.76;100424.95;124680;1099;101963;-75
2022/09/21 04:38:09;;;;;;;13.95;5.55;;;;;;;9.11;75.71;100419.78;124687;1099;102778;-75
2022/09/21 04:40:40;;;;;;;15.13;6.00;;;;;;;9.11;75.19;100420.66;124663;1099;104300;-75
2022/09/21 04:43:12;;;;;;;19.33;5.63;;;;;;;9.17;75.52;100430.50;124841;1098;104416;-75
2022/09/21 04:45:43;;;;;;;13.47;5.43;;;;;;;9.23;75.34;100428.13;125063;1098;103597;-74
2022/09/21 04:48:27;;;;;;;14.20;5.57;;;;;;;9.27;75.40;100424.81;124701;1099;104060;-75
2022/09/21 04:51:05;;;;;;;12.13;5.70;;;;;;;9.32;76.06;100427.61;124765;1099;104172;-75
2022/09/21 04:53:37;;;;;;;14.23;5.90;;;;;;;9.42;76.20;100439.33;124753;1099;104651;-75
2022/09/21 04:56:10;;;;;;;16.20;5.83;;;;;;;9.50;75.60;100427.42;124744;1099;102820;-74
2022/09/21 04:58:41;;;;;;;16.32;6.22;;;;;;;9.57;75.89;100436.40;124630;1099;108138;-75
2022/09/21 05:01:13;;;;;;;14.57;6.03;;;;;;;9.65;75.79;100422.77;124715;1099;103612;-75
2022/09/21 05:03:44;;;;;;;18.90;6.13;;;;;;;9.74;75.87;100427.48;124668;1099;104242;-74
2022/09/21 05:06:15;;;;;;;16.80;6.73;;;;;;;9.83;75.98;100432.16;124672;1099;104226;-74
2022/09/21 05:11:35;;;;;;;15.93;6.73;;;;;;;10.03;76.36;100435.52;124740;1099;104066;-75
2022/09/21 05:14:06;;;;;;;14.43;6.53;;;;;;;10.13;76.36;100434.12;124741;1099;104233;-75
2022/09/21 05:16:39;;;;;;;19.50;6.73;;;;;;;10.20;76.03;100438.77;124651;1099;104201;-74
2022/09/21 05:19:11;;;;;;;13.27;5.83;;;;;;;10.20;76.27;100437.02;124681;1099;102542;-75
2022/09/21 05:21:45;;;;;;;17.07;6.53;;;;;;;10.26;76.20;100436.36;124689;1099;104294;-74
2022/09/21 05:24:16;;;;;;;14.37;6.40;;;;;;;10.34;76.28;100434.92;124725;1099;103034;-75
2022/09/21 05:26:47;;;;;;;13.53;6.60;;;;;;;10.33;76.12;100430.55;124700;1099;102765;-75
2022/09/21 05:29:20;;;;;;;17.40;6.87;;;;;;;10.51;76.81;100440.77;124739;1099;102245;-74
2022/09/21 05:31:56;;;;;;;21.95;6.80;;;;;;;10.62;76.50;100433.27;124781;1098;104166;-74
2022/09/21 05:34:39;;;;;;;16.67;6.33;;;;;;;10.70;76.27;100438.78;124783;1099;104165;-75
2022/09/21 05:37:22;;;;;;;17.07;6.90;;;;;;;10.75;76.95;100440.73;124625;1099;104333;-75
2022/09/21 05:39:54;;;;;;;19.37;7.53;;;;;;;10.84;76.72;100445.39;124766;1099;104195;-75
2022/09/21 05:42:27;;;;;;;16.07;6.40;;;;;;;10.88;76.54;100444.66;124770;1099;104182;-75
2022/09/21 05:45:00;;;;;;;21.20;7.40;;;;;;;10.90;76.46;100444.71;124853;1099;104230;-73
2022/09/21 05:47:40;;;;;;;23.87;7.57;;;;;;;10.92;76.62;100448.27;124754;1099;104204;-75
2022/09/21 05:50:26;;;;;;;17.27;6.87;;;;;;;10.94;76.49;100443.98;124692;1099;106993;-75
2022/09/21 05:53:13;;;;;;;17.00;6.77;;;;;;;10.96;76.74;100448.42;124747;1099;104162;-75
2022/09/21 05:55:52;;;;;;;21.80;6.73;;;;;;;11.01;77.18;100452.95;124766;1099;102804;-75
2022/09/21 05:58:34;;;;;;;15.63;6.40;;;;;;;11.02;76.83;100450.37;124785;1099;104322;-73
2022/09/21 06:01:27;;;;;;;18.53;6.53;;;;;;;11.08;76.64;100463.70;124738;1098;102204;-74
2022/09/21 06:04:01;;;;;;;13.50;6.53;;;;;;;11.12;77.17;100457.69;124673;1099;102370;-73
2022/09/21 06:09:49;;;;;;;13.07;5.80;;;;;;;11.23;77.16;100455.41;124251;1102;104725;-73
2022/09/21 06:12:29;;;;;;;12.65;5.70;;;;;;;11.29;76.80;100465.23;124209;1102;102445;-75
2022/09/21 06:15:01;;;;;;;14.30;5.83;;;;;;;11.41;76.95;100456.88;124174;1102;104190;-74
2022/09/21 06:17:34;;;;;;;14.60;6.20;;;;;;;11.58;77.13;100462.66;124163;1102;104224;-74
2022/09/21 06:20:08;;;;;;;16.93;6.67;;;;;;;11.76;77.25;100457.93;124169;1102;104405;-74
2022/09/21 06:22:40;;;;;;;14.13;6.20;;;;;;;11.91;77.07;100467.15;124231;1102;104069;-75
2022/09/21 06:25:11;;;;;;;14.43;5.97;;;;;;;12.01;77.03;100466.59;124015;1102;104299;-75
2022/09/21 06:27:43;;;;;;;14.63;6.30;;;;;;;12.08;76.97;100465.94;123985;1102;104280;-74
2022/09/21 06:30:15;;;;;;;13.90;5.83;;;;;;;12.15;76.77;100467.87;124083;1105;104175;-76
2022/09/21 06:32:48;;;;;;;17.03;6.37;;;;;;;12.23;76.72;100466.38;124243;1102;104172;-74
2022/09/21 06:35:24;;;;;;;15.83;6.37;;;;;;;12.28;77.09;100468.22;124290;1102;102038;-75
2022/09/21 06:37:59;;;;;;;13.43;5.80;;;;;;;12.34;77.03;100465.77;124071;1102;104191;-75
2022/09/21 06:40:32;;;;;;;12.47;5.80;;;;;;;12.39;76.83;100472.07;124277;1102;102318;-74
2022/09/21 06:43:08;;;;;;;16.73;6.50;;;;;;;12.41;76.53;100471.24;124271;1102;103054;-74
2022/09/21 06:45:43;;;;;;;13.30;5.13;;;;;;;12.36;76.60;100474.61;124415;1102;104184;-75
2022/09/21 06:48:14;;;;;;;13.53;5.40;;;;;;;12.31;76.65;100477.12;124260;1102;104172;-73
2022/09/21 06:50:46;;;;;;;10.17;5.40;;;;;;;12.32;76.46;100478.00;124269;1102;104187;-74
2022/09/21 06:53:18;;;;;;;;;;;;;;;12.35;76.33;100475.45;124249;1102;102861;-73
2022/09/21 06:56:05;;;;;;;12.17;5.40;;;;;;;12.38;76.44;100473.78;124035;1102;104437;-72
2022/09/21 06:58:37;;;;;;;14.53;6.00;;;;;;;12.44;76.76;100478.34;123971;1102;104331;-74
2022/09/21 07:01:11;;;;;;;17.95;7.00;;;;;;;12.50;76.58;100478.52;124322;1102;104227;-73
2022/09/21 07:03:43;;;;;;;10.30;5.53;;;;;;;12.53;76.28;100480.34;124019;1102;102311;-72
2022/09/21 07:06:14;;;;;;;12.30;6.13;;;;;;;12.50;76.17;100481.14;124179;1102;103590;-73
2022/09/21 07:08:46;;;;;;;14.30;5.97;;;;;;;12.52;76.15;100489.96;124193;1102;104266;-73
2022/09/21 07:11:22;;;;;;;12.43;5.63;;;;;;;12.58;75.96;100487.50;124149;1101;104186;-73
2022/09/21 07:13:54;;;;;;;9.33;5.17;;;;;;;12.64;75.74;100483.27;124198;1102;104185;-74
2022/09/21 07:16:26;;;;;;;10.33;5.33;;;;;;;12.65;75.56;100482.41;124181;1102;104272;-74
2022/09/21 07:18:59;;;;;;;8.93;5.40;;;;;;;12.67;75.57;100481.60;124258;1102;104169;-74
2022/09/21 07:21:32;;;;;;;16.37;6.37;;;;;;;12.70;74.99;100486.04;124024;1102;104246;-74
2022/09/21 07:24:04;;;;;;;8.27;5.43;;;;;;;12.68;74.94;100491.27;124007;1102;102267;-75
2022/09/21 07:26:39;;;;;;;12.43;5.73;;;;;;;12.66;75.34;100481.56;124287;1102;104182;-73
2022/09/21 07:29:15;;;;;;;10.47;5.40;;;;;;;12.66;74.82;100478.93;124202;1102;103399;-73
2022/09/21 07:34:34;;;;;;;9.20;5.87;;;;;;;12.59;74.79;100497.19;124078;1102;103676;-75
2022/09/21 07:37:08;;;;;;;9.57;5.67;;;;;;;12.60;75.08;100490.17;124037;1102;102777;-74
2022/09/21 07:39:40;;;;;;;12.37;5.90;;;;;;;12.57;74.96;100498.90;124060;1102;104246;-74
2022/09/21 07:42:11;;;;;;;8.67;5.60;;;;;;;12.53;74.95;100506.67;124238;1102;104245;-73
2022/09/21 07:44:45;;;;;;;14.67;7.07;;;;;;;12.47;75.19;100504.75;124205;1102;102739;-74
2022/09/21 07:47:17;;;;;;;14.63;6.63;;;;;;;12.51;74.88;100497.81;124204;1102;102804;-75
2022/09/21 07:49:49;;;;;;;12.23;6.37;;;;;;;12.56;74.82;100493.59;124231;1102;104290;-74
2022/09/21 07:52:22;;;;;;;12.80;7.00;;;;;;;12.64;74.76;100501.70;124101;1102;104194;-76
2022/09/21 07:54:54;;;;;;;10.20;6.43;;;;;;;12.64;74.09;100493.80;124012;1102;104217;-75
2022/09/21 08:00:17;;;;;;;11.23;6.90;;;;;;;12.84;74.50;100503.12;124233;1101;101959;-74
2022/09/21 08:02:49;;;;;;;12.27;6.90;;;;;;;12.85;74.10;100499.61;124146;1102;108623;-75
2022/09/21 08:05:22;;;;;;;28.30;18.77;;;;;;;12.98;74.31;100499.94;124267;1102;104335;-75
2022/09/21 08:07:57;;;;;;;16.97;7.80;;;;;;;13.12;73.98;100496.82;124035;1102;104364;-75
2022/09/21 08:10:34;;;;;;;10.43;5.70;;;;;;;13.19;73.49;100492.58;124238;1102;104245;-75
2022/09/21 08:13:10;;;;;;;9.67;5.50;;;;;;;13.24;73.55;100488.31;124234;1102;118889;-75
2022/09/21 08:15:42;;;;;;;10.80;5.90;;;;;;;13.31;73.26;100492.01;124247;1102;102752;-75
2022/09/21 08:18:14;;;;;;;10.13;5.67;;;;;;;13.29;72.31;100484.06;124245;1102;102270;-74
2022/09/21 08:20:53;;;;;;;10.33;5.50;;;;;;;13.30;72.82;100488.45;124201;1102;104166;-74
2022/09/21 08:23:24;;;;;;;10.57;5.87;;;;;;;13.29;72.30;100483.16;124180;1102;102777;-73
2022/09/21 08:26:00;;;;;;;9.10;5.43;;;;;;;13.27;72.69;100491.02;124218;1098;104265;-74
2022/09/21 08:28:35;;;;;;;10.80;5.70;;;;;;;13.30;72.68;100488.45;124225;1102;104191;-74
2022/09/21 08:31:16;;;;;;;9.40;5.77;;;;;;;13.34;72.38;100488.56;124248;1102;104255;-75
2022/09/21 08:33:48;;;;;;;8.47;5.37;;;;;;;13.34;71.77;100484.21;124206;1102;109053;-75
2022/09/21 08:36:20;;;;;;;8.20;5.00;;;;;;;13.34;71.95;100484.21;124238;1100;104182;-75
2022/09/21 08:38:55;;;;;;;8.30;5.00;;;;;;;13.33;72.27;100492.05;124256;1102;102406;-75
2022/09/21 08:41:46;;;;;;;14.17;5.90;;;;;;;13.26;71.63;100491.89;125051;1102;103209;-75
2022/09/21 08:44:22;;;;;;;9.70;5.80;;;;;;;13.23;71.97;100489.19;124216;1102;104227;-73
2022/09/21 08:47:03;;;;;;;11.13;6.23;;;;;;;13.22;71.91;100495.30;124189;1099;104326;-73
2022/09/21 08:49:38;;;;;;;11.47;5.87;;;;;;;13.29;71.75;100489.34;124171;1099;104217;-74
2022/09/21 08:52:14;;;;;;;13.27;6.50;;;;;;;13.33;71.90;100487.69;124237;1099;103423;-74
2022/09/21 08:55:00;;;;;;;10.13;5.90;;;;;;;13.40;72.15;100488.72;124228;1102;108203;-74
2022/09/21 08:57:33;;;;;;;10.07;5.83;;;;;;;13.39;71.44;100492.23;124196;1102;104226;-75
2022/09/21 09:00:14;;;;;;;9.83;5.80;;;;;;;13.41;71.73;100491.39;124194;1102;102258;-74
2022/09/21 09:03:15;;;;;;;10.80;6.17;;;;;;;13.48;71.34;100488.06;124228;1102;104226;-75
2022/09/21 09:05:56;;;;;;;11.27;6.03;;;;;;;13.55;70.74;100483.81;124152;1102;105175;-74
2022/09/21 09:09:19;;;;;;;12.90;6.83;;;;;;;13.61;70.51;100489.23;124144;1102;104217;-74
2022/09/21 09:12:08;;;;;;;12.47;6.60;;;;;;;13.64;70.46;100491.94;123926;1106;104658;-74
2022/09/21 09:14:58;;;;;;;10.30;6.30;;;;;;;13.64;70.72;100496.33;124210;1102;104329;-73
2022/09/21 09:17:47;;;;;;;12.20;6.70;;;;;;;13.68;70.46;100489.37;124288;1102;104204;-74
2022/09/21 09:20:22;;;;;;;11.93;6.77;;;;;;;13.68;70.15;100492.00;124216;1102;104303;-73
2022/09/21 09:23:04;;;;;;;10.60;6.17;;;;;;;13.63;69.89;100492.81;124175;1102;101953;-74
2022/09/21 09:25:41;;;;;;;12.37;6.35;;;;;;;13.68;69.58;100478.82;124187;1102;104261;-75
2022/09/21 09:28:35;;;;;;;14.97;6.80;;;;;;;13.78;70.10;100481.70;124155;1102;104328;-74
2022/09/21 09:31:14;;;;;;;13.40;6.03;;;;;;;13.99;70.65;100477.75;124221;1102;103266;-75
2022/09/21 09:33:52;;;;;;;10.87;6.20;;;;;;;14.14;69.51;100472.80;124251;1102;104273;-75
2022/09/21 09:36:31;;;;;;;11.97;6.17;;;;;;;14.23;69.47;100469.47;124229;1102;102048;-74
2022/09/21 09:39:11;;;;;;;14.80;6.03;;;;;;;14.30;69.14;100476.63;124158;1102;104214;-75
2022/09/21 09:42:14;;;;;;;9.20;5.70;;;;;;;14.35;69.52;100471.44;124187;1102;103401;-74
2022/09/21 09:45:02;;;;;;;12.57;5.93;;;;;;;14.50;69.41;100468.22;124222;1102;104229;-74
2022/09/21 09:47:44;;;;;;;10.03;5.53;;;;;;;14.66;69.00;100465.06;124229;1101;104310;-74
2022/09/21 09:50:26;;;;;;;11.03;5.60;;;;;;;14.78;69.07;100472.30;124178;1102;104242;-75
2022/09/21 09:53:11;;;;;;;11.93;5.73;;;;;;;14.88;68.51;100462.77;124360;1102;104082;-74
2022/09/21 09:55:47;;;;;;;9.97;5.60;;;;;;;15.01;68.65;100467.42;124292;1102;104172;-74
2022/09/21 09:58:32;;;;;;;9.93;5.53;;;;;;;15.07;68.31;100467.52;124261;1102;104238;-75
2022/09/21 10:01:10;;;;;;;11.87;5.93;;;;;;;15.21;68.04;100462.47;124183;1102;103040;-74
2022/09/21 10:03:43;;;;;;;8.10;5.10;;;;;;;15.32;68.24;100460.00;124162;1100;104525;-74
2022/09/21 10:06:32;;;;;;;11.63;5.40;;;;;;;15.40;66.72;100439.84;124211;1102;104291;-73
2022/09/21 10:09:21;;;;;;;10.33;5.50;;;;;;;15.37;67.67;100442.44;124198;1099;104021;-74
2022/09/21 10:11:54;;;;;;;8.10;5.37;;;;;;;15.37;66.94;100444.20;124215;1099;102493;-75
2022/09/21 10:14:28;;;;;;;11.78;5.67;;;;;;;15.31;67.45;100439.70;124255;1099;102180;-75
2022/09/21 10:17:08;;;;;;;10.77;6.00;;;;;;;15.26;66.45;100438.75;124174;1102;104268;-74
2022/09/21 10:19:39;;;;;;;10.13;5.33;;;;;;;15.08;67.40;100437.60;124126;1100;102832;-74
2022/09/21 10:22:21;;;;;;;8.07;5.10;;;;;;;15.12;66.06;100448.22;124107;1102;104246;-74
2022/09/21 10:24:55;;;;;;;10.37;5.10;;;;;;;15.15;66.41;100433.30;124185;1102;104239;-74
2022/09/21 10:27:29;;;;;;;10.20;5.12;;;;;;;15.08;66.67;100448.17;124199;1099;103737;-74
2022/09/21 10:30:06;;;;;;;8.97;5.17;;;;;;;15.14;65.58;100442.08;124187;1099;102854;-74
2022/09/21 10:32:58;;;;;;;10.97;5.77;;;;;;;15.10;66.63;100440.27;124163;1098;104156;-73
2022/09/21 10:35:30;;;;;;;9.30;5.23;;;;;;;15.23;65.66;100428.13;124201;1099;104246;-73
2022/09/21 10:38:18;;;;;;;8.93;5.10;;;;;;;15.28;65.56;100429.08;124198;1102;103604;-74
2022/09/21 10:40:52;;;;;;;12.20;5.67;;;;;;;15.51;66.21;100426.78;124196;1102;104268;-73
2022/09/21 10:43:30;;;;;;;9.70;5.43;;;;;;;15.42;65.74;100431.94;124207;1102;104192;-73
2022/09/21 10:46:04;;;;;;;9.27;5.03;;;;;;;15.29;66.35;100428.23;124276;1099;104156;-73
2022/09/21 10:48:38;;;;;;;9.33;5.00;;;;;;;15.27;64.64;100422.04;124330;1102;101937;-74
2022/09/21 10:51:27;;;;;;;9.53;5.20;;;;;;;15.25;64.89;100423.75;124405;1102;104310;-74
2022/09/21 10:54:16;;;;;;;7.87;4.67;;;;;;;15.34;65.36;100429.17;124469;1099;104198;-73
2022/09/21 10:57:15;;;;;;;8.20;4.33;;;;;;;15.34;65.75;100423.89;124351;1101;104236;-74
2022/09/21 10:59:47;;;;;;;6.90;4.33;;;;;;;15.57;64.96;100418.06;124348;1102;102389;-74
2022/09/21 11:02:37;;;;;;;7.83;4.37;;;;;;;15.64;65.09;100404.03;124264;1102;102752;-74
2022/09/21 11:05:16;;;;;;;8.23;4.60;;;;;;;15.68;63.61;100412.92;124312;1102;102810;-76
2022/09/21 11:07:54;;;;;;;6.80;4.37;;;;;;;15.69;64.66;100412.03;124255;1102;118918;-74
2022/09/21 11:10:41;;;;;;;8.33;4.80;;;;;;;15.70;63.48;100411.17;124253;1102;102470;-76
2022/09/21 11:13:31;;;;;;;9.97;4.70;;;;;;;15.66;64.06;100406.70;124275;1102;104297;-75
2022/09/21 11:16:25;;;;;;;8.57;4.47;;;;;;;15.60;63.30;100402.23;124336;1102;104238;-75
2022/09/21 11:19:06;;;;;;;6.23;3.87;;;;;;;15.54;62.61;100400.38;124274;1102;104175;-75
2022/09/21 11:21:50;;;;;;;6.70;4.27;;;;;;;15.41;63.16;100388.75;124362;1102;103033;-73
2022/09/21 11:24:32;;;;;;;6.57;3.63;;;;;;;15.43;62.37;100397.59;124289;1102;104232;-74
2022/09/21 11:27:17;;;;;;;6.13;3.70;;;;;;;15.42;62.59;100398.44;124244;1102;102115;-75
2022/09/21 11:30:07;;;;;;;6.83;4.17;;;;;;;15.43;63.41;100397.59;124247;1102;104208;-75
2022/09/21 11:33:11;;;;;;;6.97;4.20;;;;;;;15.39;62.86;100377.24;124372;1102;104363;-76
2022/09/21 11:35:57;;;;;;;4.50;3.40;;;;;;;15.52;62.87;100388.91;124367;1102;104239;-75
2022/09/21 11:38:44;;;;;;;5.70;3.73;;;;;;;15.58;62.09;100396.02;124275;1102;108753;-75
2022/09/21 11:41:48;;;;;;;7.15;4.05;;;;;;;15.56;62.06;100397.76;124317;1102;102829;-74
2022/09/21 11:44:42;;;;;;;7.07;3.70;;;;;;;15.52;62.04;100391.55;124193;1102;104166;-75
2022/09/21 11:47:31;;;;;;;9.17;4.27;;;;;;;15.49;61.40;100386.22;124382;1102;104171;-75
2022/09/21 11:50:19;;;;;;;8.40;3.90;;;;;;;15.58;61.96;100383.70;124306;1102;103193;-75
2022/09/21 11:53:14;;;;;;;5.97;4.00;;;;;;;15.76;62.15;100380.39;125159;1100;101945;-75
2022/09/21 11:59:05;;;;;;;9.50;3.87;;;;;;;16.15;61.92;100363.23;124468;1102;104210;-75
2022/09/21 12:01:56;;;;;;;8.73;4.13;;;;;;;16.46;62.17;100370.61;124304;1102;104290;-75
2022/09/21 12:05:05;;;;;;;7.70;3.47;;;;;;;16.79;61.49;100361.18;124369;1101;102252;-75
2022/09/21 12:08:10;;;;;;;7.73;4.37;;;;;;;16.94;60.32;100363.98;125151;1101;102200;-75